sensor_id;sensor_type;location;lat;lon;timestamp;pressure;altitude;pressure_sealevel;temperature;humidity
59789;BME280;47353;51.614;5.530;2024-01-16T00:01:56;100846.16;;;-0.50;100.00
59789;BME280;47353;51.614;5.530;2024-01-16T00:04:22;100853.84;;;-0.60;100.00
59789;BME280;47353;51.614;5.530;2024-01-16T00:06:47;100852.84;;;-0.59;100.00
59789;BME280;47353;51.614;5.530;2024-01-16T00:09:13;100837.81;;;-0.48;100.00
59789;BME280;47353;51.614;5.530;2024-01-16T00:11:42;100842.00;;;-0.39;100.00
59789;BME280;47353;51.614;5.530;2024-01-16T00:14:08;100838.88;;;-0.36;100.00
59789;BME280;47353;51.614;5.530;2024-01-16T00:16:33;100835.28;;;-0.50;100.00
59789;BME280;47353;51.614;5.530;2024-01-16T00:18:58;100826.47;;;-0.58;100.00
59789;BME280;47353;51.614;5.530;2024-01-16T00:21:24;100835.97;;;-0.28;100.00
59789;BME280;47353;51.614;5.530;2024-01-16T00:23:49;100843.66;;;-0.38;100.00
59789;BME280;47353;51.614;5.530;2024-01-16T00:26:22;100841.41;;;-0.28;100.00
59789;BME280;47353;51.614;5.530;2024-01-16T00:28:47;100848.50;;;-0.27;100.00
59789;BME280;47353;51.614;5.530;2024-01-16T00:31:13;100844.72;;;-0.39;100.00
59789;BME280;47353;51.614;5.530;2024-01-16T00:33:39;100852.91;;;-0.33;100.00
59789;BME280;47353;51.614;5.530;2024-01-16T00:36:05;100849.75;;;-0.36;100.00
59789;BME280;47353;51.614;5.530;2024-01-16T00:38:34;100851.66;;;-0.24;100.00
59789;BME280;47353;51.614;5.530;2024-01-16T00:41:00;100849.75;;;-0.30;100.00
59789;BME280;47353;51.614;5.530;2024-01-16T00:43:25;100859.19;;;-0.19;100.00
59789;BME280;47353;51.614;5.530;2024-01-16T00:45:50;100837.84;;;-0.22;100.00
59789;BME280;47353;51.614;5.530;2024-01-16T00:48:16;100844.94;;;-0.34;100.00
59789;BME280;47353;51.614;5.530;2024-01-16T00:50:41;100854.34;;;-0.30;100.00
59789;BME280;47353;51.614;5.530;2024-01-16T00:53:07;100858.75;;;-0.23;100.00
59789;BME280;47353;51.614;5.530;2024-01-16T00:55:32;100862.09;;;-0.27;100.00
59789;BME280;47353;51.614;5.530;2024-01-16T00:57:58;100851.84;;;-0.12;100.00
59789;BME280;47353;51.614;5.530;2024-01-16T01:00:23;100864.22;;;-0.16;100.00
59789;BME280;47353;51.614;5.530;2024-01-16T01:02:48;100866.50;;;-0.33;100.00
59789;BME280;47353;51.614;5.530;2024-01-16T01:05:14;100870.47;;;-0.09;100.00
59789;BME280;47353;51.614;5.530;2024-01-16T01:07:39;100879.72;;;-0.04;100.00
59789;BME280;47353;51.614;5.530;2024-01-16T01:10:05;100869.66;;;-0.10;100.00
59789;BME280;47353;51.614;5.530;2024-01-16T01:12:30;100875.31;;;-0.05;100.00
59789;BME280;47353;51.614;5.530;2024-01-16T01:14:56;100870.50;;;-0.03;100.00
59789;BME280;47353;51.614;5.530;2024-01-16T01:17:21;100872.38;;;-0.03;100.00
59789;BME280;47353;51.614;5.530;2024-01-16T01:19:46;100869.88;;;-0.11;100.00
59789;BME280;47353;51.614;5.530;2024-01-16T01:22:12;100868.81;;;-0.17;100.00
59789;BME280;47353;51.614;5.530;2024-01-16T01:24:37;100865.28;;;-0.04;100.00
59789;BME280;47353;51.614;5.530;2024-01-16T01:27:04;100865.69;;;-0.07;100.00
59789;BME280;47353;51.614;5.530;2024-01-16T01:29:31;100865.06;;;-0.03;100.00
59789;BME280;47353;51.614;5.530;2024-01-16T01:31:56;100862.78;;;0.08;100.00
59789;BME280;47353;51.614;5.530;2024-01-16T01:34:21;100864.41;;;-0.05;100.00
59789;BME280;47353;51.614;5.530;2024-01-16T01:36:47;100863.41;;;0.03;100.00
59789;BME280;47353;51.614;5.530;2024-01-16T01:39:12;100861.50;;;0.03;100.00
59789;BME280;47353;51.614;5.530;2024-01-16T01:41:38;100862.56;;;0.03;100.00
59789;BME280;47353;51.614;5.530;2024-01-16T01:44:05;100862.53;;;-0.04;100.00
59789;BME280;47353;51.614;5.530;2024-01-16T01:46:31;100859.19;;;0.00;100.00
59789;BME280;47353;51.614;5.530;2024-01-16T01:48:57;100861.69;;;-0.05;100.00
59789;BME280;47353;51.614;5.530;2024-01-16T01:51:23;100867.56;;;-0.14;100.00
59789;BME280;47353;51.614;5.530;2024-01-16T01:53:50;100868.63;;;-0.02;100.00
59789;BME280;47353;51.614;5.530;2024-01-16T01:56:20;100881.59;;;0.03;100.00
59789;BME280;47353;51.614;5.530;2024-01-16T01:58:48;100872.19;;;-0.08;100.00
59789;BME280;47353;51.614;5.530;2024-01-16T02:01:16;100877.84;;;0.03;100.00
59789;BME280;47353;51.614;5.530;2024-01-16T02:03:44;100874.28;;;-0.04;100.00
59789;BME280;47353;51.614;5.530;2024-01-16T02:06:11;100885.97;;;-0.03;100.00
59789;BME280;47353;51.614;5.530;2024-01-16T02:08:37;100877.19;;;-0.12;100.00
59789;BME280;47353;51.614;5.530;2024-01-16T02:11:03;100873.44;;;-0.04;100.00
59789;BME280;47353;51.614;5.530;2024-01-16T02:13:29;100867.38;;;0.14;100.00
59789;BME280;47353;51.614;5.530;2024-01-16T02:15:54;100876.16;;;-0.17;100.00
59789;BME280;47353;51.614;5.530;2024-01-16T02:18:20;100873.84;;;-0.20;100.00
59789;BME280;47353;51.614;5.530;2024-01-16T02:20:45;100876.34;;;-0.06;100.00
59789;BME280;47353;51.614;5.530;2024-01-16T02:23:13;100870.31;;;0.06;100.00
59789;BME280;47353;51.614;5.530;2024-01-16T02:25:40;100872.16;;;-0.02;100.00
59789;BME280;47353;51.614;5.530;2024-01-16T02:28:06;100879.09;;;0.01;100.00
59789;BME280;47353;51.614;5.530;2024-01-16T02:30:32;100884.53;;;0.14;100.00
59789;BME280;47353;51.614;5.530;2024-01-16T02:32:58;100876.56;;;0.13;100.00
59789;BME280;47353;51.614;5.530;2024-01-16T02:35:24;100880.75;;;-0.05;100.00
59789;BME280;47353;51.614;5.530;2024-01-16T02:37:49;100887.81;;;-0.23;100.00
59789;BME280;47353;51.614;5.530;2024-01-16T02:40:15;100879.50;;;-0.09;100.00
59789;BME280;47353;51.614;5.530;2024-01-16T02:42:40;100890.56;;;-0.17;100.00
59789;BME280;47353;51.614;5.530;2024-01-16T02:45:06;100896.25;;;-0.05;100.00
59789;BME280;47353;51.614;5.530;2024-01-16T02:47:32;100897.91;;;-0.11;100.00
59789;BME280;47353;51.614;5.530;2024-01-16T02:49:58;100894.13;;;-0.16;100.00
59789;BME280;47353;51.614;5.530;2024-01-16T02:52:24;100884.31;;;-0.04;100.00
59789;BME280;47353;51.614;5.530;2024-01-16T02:54:49;100890.63;;;0.03;100.00
59789;BME280;47353;51.614;5.530;2024-01-16T02:57:14;100891.63;;;-0.11;100.00
59789;BME280;47353;51.614;5.530;2024-01-16T02:59:43;100903.34;;;-0.04;100.00
59789;BME280;47353;51.614;5.530;2024-01-16T03:02:08;100899.81;;;0.02;100.00
59789;BME280;47353;51.614;5.530;2024-01-16T03:04:35;100896.88;;;0.10;100.00
59789;BME280;47353;51.614;5.530;2024-01-16T03:07:00;100897.06;;;-0.05;100.00
59789;BME280;47353;51.614;5.530;2024-01-16T03:09:26;100901.28;;;0.05;100.00
59789;BME280;47353;51.614;5.530;2024-01-16T03:11:51;100897.72;;;0.04;100.00
59789;BME280;47353;51.614;5.530;2024-01-16T03:14:17;100884.94;;;-0.02;100.00
59789;BME280;47353;51.614;5.530;2024-01-16T03:16:43;100890.34;;;-0.22;100.00
59789;BME280;47353;51.614;5.530;2024-01-16T03:19:09;100898.09;;;-0.12;100.00
59789;BME280;47353;51.614;5.530;2024-01-16T03:21:35;100894.56;;;-0.06;100.00
59789;BME280;47353;51.614;5.530;2024-01-16T03:24:00;100892.28;;;-0.03;100.00
59789;BME280;47353;51.614;5.530;2024-01-16T03:26:26;100891.19;;;-0.21;100.00
59789;BME280;47353;51.614;5.530;2024-01-16T03:28:51;100897.25;;;-0.19;100.00
59789;BME280;47353;51.614;5.530;2024-01-16T03:31:17;100899.13;;;-0.20;100.00
59789;BME280;47353;51.614;5.530;2024-01-16T03:33:44;100894.75;;;-0.21;100.00
59789;BME280;47353;51.614;5.530;2024-01-16T03:36:10;100892.22;;;-0.29;100.00
59789;BME280;47353;51.614;5.530;2024-01-16T03:38:38;100891.22;;;-0.15;100.00
59789;BME280;47353;51.614;5.530;2024-01-16T03:41:04;100885.38;;;-0.05;100.00
59789;BME280;47353;51.614;5.530;2024-01-16T03:43:32;100881.59;;;-0.04;100.00
59789;BME280;47353;51.614;5.530;2024-01-16T03:45:57;100872.19;;;-0.08;100.00
59789;BME280;47353;51.614;5.530;2024-01-16T03:48:23;100877.00;;;0.16;100.00
59789;BME280;47353;51.614;5.530;2024-01-16T03:50:48;100872.19;;;0.31;100.00
59789;BME280;47353;51.614;5.530;2024-01-16T03:53:14;100870.53;;;0.11;100.00
59789;BME280;47353;51.614;5.530;2024-01-16T03:55:39;100885.59;;;0.13;100.00
59789;BME280;47353;51.614;5.530;2024-01-16T03:58:04;100886.00;;;0.30;100.00
59789;BME280;47353;51.614;5.530;2024-01-16T04:00:30;100882.25;;;0.24;100.00
59789;BME280;47353;51.614;5.530;2024-01-16T04:02:55;100873.22;;;0.24;100.00
59789;BME280;47353;51.614;5.530;2024-01-16T04:05:21;100877.22;;;0.28;100.00
59789;BME280;47353;51.614;5.530;2024-01-16T04:07:46;100864.00;;;-0.02;100.00
59789;BME280;47353;51.614;5.530;2024-01-16T04:10:11;100870.44;;;-0.35;100.00
59789;BME280;47353;51.614;5.530;2024-01-16T04:12:37;100862.91;;;-0.40;100.00
59789;BME280;47353;51.614;5.530;2024-01-16T04:15:03;100868.72;;;-0.56;100.00
59789;BME280;47353;51.614;5.530;2024-01-16T04:17:28;100864.56;;;-0.52;100.00
59789;BME280;47353;51.614;5.530;2024-01-16T04:19:54;100867.44;;;-0.60;100.00
59789;BME280;47353;51.614;5.530;2024-01-16T04:22:19;100859.72;;;-0.56;100.00
59789;BME280;47353;51.614;5.530;2024-01-16T04:24:45;100847.38;;;-0.52;100.00
59789;BME280;47353;51.614;5.530;2024-01-16T04:27:11;100848.44;;;-0.53;100.00
59789;BME280;47353;51.614;5.530;2024-01-16T04:29:37;100847.81;;;-0.55;100.00
59789;BME280;47353;51.614;5.530;2024-01-16T04:32:03;100848.59;;;-0.74;100.00
59789;BME280;47353;51.614;5.530;2024-01-16T04:34:29;100847.38;;;-0.52;100.00
59789;BME280;47353;51.614;5.530;2024-01-16T04:36:55;100847.97;;;-0.63;100.00
59789;BME280;47353;51.614;5.530;2024-01-16T04:39:20;100852.44;;;-0.56;100.00
59789;BME280;47353;51.614;5.530;2024-01-16T04:41:50;100851.53;;;-0.63;100.00
59789;BME280;47353;51.614;5.530;2024-01-16T04:44:16;100852.41;;;-0.62;100.00
59789;BME280;47353;51.614;5.530;2024-01-16T04:46:41;100852.63;;;-0.51;100.00
59789;BME280;47353;51.614;5.530;2024-01-16T04:49:07;100853.81;;;-0.66;100.00
59789;BME280;47353;51.614;5.530;2024-01-16T04:51:32;100853.81;;;-0.73;100.00
59789;BME280;47353;51.614;5.530;2024-01-16T04:53:58;100858.22;;;-0.72;100.00
59789;BME280;47353;51.614;5.530;2024-01-16T04:56:23;100853.81;;;-0.66;100.00
59789;BME280;47353;51.614;5.530;2024-01-16T04:58:49;100853.22;;;-0.68;100.00
59789;BME280;47353;51.614;5.530;2024-01-16T05:01:14;100855.53;;;-0.65;100.00
59789;BME280;47353;51.614;5.530;2024-01-16T05:03:39;100846.56;;;-0.53;100.00
59789;BME280;47353;51.614;5.530;2024-01-16T05:06:12;100848.63;;;-0.61;100.00
59789;BME280;47353;51.614;5.530;2024-01-16T05:08:37;100851.75;;;-0.64;100.00
59789;BME280;47353;51.614;5.530;2024-01-16T05:11:03;100846.72;;;-0.67;100.00
59789;BME280;47353;51.614;5.530;2024-01-16T05:13:28;100848.19;;;-0.71;100.00
59789;BME280;47353;51.614;5.530;2024-01-16T05:15:54;100846.78;;;-0.54;100.00
59789;BME280;47353;51.614;5.530;2024-01-16T05:18:19;100846.28;;;-0.71;100.00
59789;BME280;47353;51.614;5.530;2024-01-16T05:20:44;100840.03;;;-0.71;100.00
59789;BME280;47353;51.614;5.530;2024-01-16T05:23:10;100840.22;;;-0.79;100.00
59789;BME280;47353;51.614;5.530;2024-01-16T05:25:35;100841.69;;;-0.70;100.00
59789;BME280;47353;51.614;5.530;2024-01-16T05:28:00;100831.97;;;-0.39;100.00
59789;BME280;47353;51.614;5.530;2024-01-16T05:30:26;100835.91;;;-0.48;100.00
59789;BME280;47353;51.614;5.530;2024-01-16T05:32:51;100837.38;;;-0.52;100.00
59789;BME280;47353;51.614;5.530;2024-01-16T05:35:17;100825.66;;;-0.46;100.00
59789;BME280;47353;51.614;5.530;2024-01-16T05:37:43;100825.66;;;-0.59;100.00
59789;BME280;47353;51.614;5.530;2024-01-16T05:40:08;100818.09;;;-0.57;100.00
59789;BME280;47353;51.614;5.530;2024-01-16T05:42:34;100814.75;;;-0.65;100.00
59789;BME280;47353;51.614;5.530;2024-01-16T05:44:59;100820.03;;;-0.44;100.00
59789;BME280;47353;51.614;5.530;2024-01-16T05:47:25;100814.28;;;-0.75;100.00
59789;BME280;47353;51.614;5.530;2024-01-16T05:49:54;100812.00;;;-0.78;100.00
59789;BME280;47353;51.614;5.530;2024-01-16T05:52:19;100817.81;;;-0.88;100.00
59789;BME280;47353;51.614;5.530;2024-01-16T05:54:44;100811.31;;;-0.93;100.00
59789;BME280;47353;51.614;5.530;2024-01-16T05:57:10;100807.34;;;-0.91;100.00
59789;BME280;47353;51.614;5.530;2024-01-16T05:59:35;100807.38;;;-0.84;100.00
59789;BME280;47353;51.614;5.530;2024-01-16T06:02:01;100805.25;;;-0.95;100.00
59789;BME280;47353;51.614;5.530;2024-01-16T06:04:26;100804.84;;;-0.99;100.00
59789;BME280;47353;51.614;5.530;2024-01-16T06:06:51;100803.34;;;-1.01;100.00
59789;BME280;47353;51.614;5.530;2024-01-16T06:09:17;100807.97;;;-0.89;100.00
59789;BME280;47353;51.614;5.530;2024-01-16T06:11:43;100810.59;;;-1.15;100.00
59789;BME280;47353;51.614;5.530;2024-01-16T06:14:09;100803.72;;;-1.11;100.00
59789;BME280;47353;51.614;5.530;2024-01-16T06:16:35;100806.81;;;-1.20;100.00
59789;BME280;47353;51.614;5.530;2024-01-16T06:19:01;100806.84;;;-1.14;100.00
59789;BME280;47353;51.614;5.530;2024-01-16T06:21:26;100811.56;;;-1.29;100.00
59789;BME280;47353;51.614;5.530;2024-01-16T06:23:52;100805.84;;;-1.00;100.00
59789;BME280;47353;51.614;5.530;2024-01-16T06:26:18;100805.97;;;-1.21;100.00
59789;BME280;47353;51.614;5.530;2024-01-16T06:28:43;100808.13;;;-1.10;100.00
59789;BME280;47353;51.614;5.530;2024-01-16T06:31:09;100809.09;;;-1.24;100.00
59789;BME280;47353;51.614;5.530;2024-01-16T06:33:35;100806.13;;;-1.29;100.00
59789;BME280;47353;51.614;5.530;2024-01-16T06:36:02;100807.28;;;-1.10;100.00
59789;BME280;47353;51.614;5.530;2024-01-16T06:38:29;100814.72;;;-1.25;100.00
59789;BME280;47353;51.614;5.530;2024-01-16T06:40:55;100812.06;;;-1.19;100.00
59789;BME280;47353;51.614;5.530;2024-01-16T06:43:21;100813.53;;;-1.16;100.00
59789;BME280;47353;51.614;5.530;2024-01-16T06:45:46;100806.19;;;-1.22;100.00
59789;BME280;47353;51.614;5.530;2024-01-16T06:48:12;100812.63;;;-1.30;100.00
59789;BME280;47353;51.614;5.530;2024-01-16T06:50:37;100809.13;;;-1.17;100.00
59789;BME280;47353;51.614;5.530;2024-01-16T06:53:03;100816.56;;;-1.32;100.00
59789;BME280;47353;51.614;5.530;2024-01-16T06:55:28;100818.09;;;-1.17;100.00
59789;BME280;47353;51.614;5.530;2024-01-16T06:57:54;100822.63;;;-1.30;100.00
59789;BME280;47353;51.614;5.530;2024-01-16T07:00:19;100814.94;;;-1.27;100.00
59789;BME280;47353;51.614;5.530;2024-01-16T07:02:45;100818.91;;;-1.23;100.00
59789;BME280;47353;51.614;5.530;2024-01-16T07:05:11;100816.97;;;-1.35;100.00
59789;BME280;47353;51.614;5.530;2024-01-16T07:07:36;100822.63;;;-1.30;100.00
59789;BME280;47353;51.614;5.530;2024-01-16T07:10:02;100819.75;;;-1.22;100.00
59789;BME280;47353;51.614;5.530;2024-01-16T07:12:28;100822.47;;;-1.22;100.00
59789;BME280;47353;51.614;5.530;2024-01-16T07:14:53;100824.94;;;-1.27;100.00
59789;BME280;47353;51.614;5.530;2024-01-16T07:17:19;100835.34;;;-1.31;100.00
59789;BME280;47353;51.614;5.530;2024-01-16T07:19:44;100827.22;;;-1.31;100.00
59789;BME280;47353;51.614;5.530;2024-01-16T07:22:10;100838.88;;;-1.37;100.00
59789;BME280;47353;51.614;5.530;2024-01-16T07:24:35;100831.28;;;-1.14;100.00
59789;BME280;47353;51.614;5.530;2024-01-16T07:27:00;100850.28;;;-1.20;100.00
59789;BME280;47353;51.614;5.530;2024-01-16T07:29:26;100841.44;;;-1.29;100.00
59789;BME280;47353;51.614;5.530;2024-01-16T07:31:51;100846.56;;;-1.06;100.00
59789;BME280;47353;51.614;5.530;2024-01-16T07:34:18;100837.56;;;-1.13;100.00
59789;BME280;47353;51.614;5.530;2024-01-16T07:36:47;100841.28;;;-1.21;100.00
59789;BME280;47353;51.614;5.530;2024-01-16T07:39:13;100837.16;;;-1.10;100.00
59789;BME280;47353;51.614;5.530;2024-01-16T07:41:39;100845.41;;;-1.25;100.00
59789;BME280;47353;51.614;5.530;2024-01-16T07:44:05;100843.16;;;-1.21;100.00
59789;BME280;47353;51.614;5.530;2024-01-16T07:46:30;100843.63;;;-1.11;100.00
59789;BME280;47353;51.614;5.530;2024-01-16T07:48:56;100854.81;;;-1.27;100.00
59789;BME280;47353;51.614;5.530;2024-01-16T07:51:21;100849.88;;;-1.11;100.00
59789;BME280;47353;51.614;5.530;2024-01-16T07:53:46;100843.25;;;-1.02;100.00
59789;BME280;47353;51.614;5.530;2024-01-16T07:56:14;100860.53;;;-1.09;100.00
59789;BME280;47353;51.614;5.530;2024-01-16T07:58:40;100862.44;;;-1.03;100.00
59789;BME280;47353;51.614;5.530;2024-01-16T08:01:05;100860.53;;;-1.09;100.00
59789;BME280;47353;51.614;5.530;2024-01-16T08:03:30;100867.44;;;-1.13;100.00
59789;BME280;47353;51.614;5.530;2024-01-16T08:05:56;100867.78;;;-1.23;100.00
59789;BME280;47353;51.614;5.530;2024-01-16T08:08:21;100872.56;;;-1.25;100.00
59789;BME280;47353;51.614;5.530;2024-01-16T08:10:47;100864.66;;;-1.20;100.00
59789;BME280;47353;51.614;5.530;2024-01-16T08:13:12;100867.44;;;-1.13;100.00
59789;BME280;47353;51.614;5.530;2024-01-16T08:15:38;100866.56;;;-1.14;100.00
59789;BME280;47353;51.614;5.530;2024-01-16T08:18:03;100865.47;;;-1.26;100.00
59789;BME280;47353;51.614;5.530;2024-01-16T08:20:29;100871.66;;;-1.38;100.00
59789;BME280;47353;51.614;5.530;2024-01-16T08:22:54;100865.72;;;-1.21;100.00
59789;BME280;47353;51.614;5.530;2024-01-16T08:25:20;100870.53;;;-1.16;100.00
59789;BME280;47353;51.614;5.530;2024-01-16T08:27:45;100868.03;;;-1.18;100.00
59789;BME280;47353;51.614;5.530;2024-01-16T08:30:11;100872.38;;;-1.23;100.00
59789;BME280;47353;51.614;5.530;2024-01-16T08:32:37;100865.91;;;-1.22;100.00
59789;BME280;47353;51.614;5.530;2024-01-16T08:35:03;100859.69;;;-1.16;100.00
59789;BME280;47353;51.614;5.530;2024-01-16T08:37:31;100858.72;;;-1.02;100.00
59789;BME280;47353;51.614;5.530;2024-01-16T08:39:57;100869.28;;;-1.14;100.00
59789;BME280;47353;51.614;5.530;2024-01-16T08:42:22;100869.94;;;-1.12;100.00
59789;BME280;47353;51.614;5.530;2024-01-16T08:44:47;100866.56;;;-1.14;100.00
59789;BME280;47353;51.614;5.530;2024-01-16T08:47:13;100869.50;;;-1.15;100.00
59789;BME280;47353;51.614;5.530;2024-01-16T08:49:38;100871.78;;;-1.19;100.00
59789;BME280;47353;51.614;5.530;2024-01-16T08:52:04;100873.50;;;-1.05;100.00
59789;BME280;47353;51.614;5.530;2024-01-16T08:54:30;100863.91;;;-1.07;100.00
59789;BME280;47353;51.614;5.530;2024-01-16T08:56:56;100863.25;;;-1.09;100.00
59789;BME280;47353;51.614;5.530;2024-01-16T08:59:22;100854.09;;;-1.08;100.00
59789;BME280;47353;51.614;5.530;2024-01-16T09:01:48;100866.69;;;-0.94;100.00
59789;BME280;47353;51.614;5.530;2024-01-16T09:04:13;100867.72;;;-1.02;100.00
59789;BME280;47353;51.614;5.530;2024-01-16T09:06:39;100871.28;;;-0.95;100.00
59789;BME280;47353;51.614;5.530;2024-01-16T09:09:04;100869.09;;;-1.12;100.00
59789;BME280;47353;51.614;5.530;2024-01-16T09:11:30;100872.34;;;-0.96;100.00
59789;BME280;47353;51.614;5.530;2024-01-16T09:13:56;100873.34;;;-0.97;100.00
59789;BME280;47353;51.614;5.530;2024-01-16T09:16:21;100873.19;;;-0.89;100.00
59789;BME280;47353;51.614;5.530;2024-01-16T09:18:46;100882.03;;;-0.74;100.00
59789;BME280;47353;51.614;5.530;2024-01-16T09:21:13;100878.81;;;-0.90;100.00
59789;BME280;47353;51.614;5.530;2024-01-16T09:23:38;100873.88;;;-0.80;100.00
59789;BME280;47353;51.614;5.530;2024-01-16T09:26:03;100869.28;;;-0.73;100.00
59789;BME280;47353;51.614;5.530;2024-01-16T09:28:29;100869.50;;;-0.75;100.00
59789;BME280;47353;51.614;5.530;2024-01-16T09:30:54;100863.84;;;-0.73;100.00
59789;BME280;47353;51.614;5.530;2024-01-16T09:33:23;100859.88;;;-0.71;100.00
59789;BME280;47353;51.614;5.530;2024-01-16T09:35:50;100862.84;;;-0.59;100.00
59789;BME280;47353;51.614;5.530;2024-01-16T09:38:15;100851.56;;;-0.56;100.00
59789;BME280;47353;51.614;5.530;2024-01-16T09:40:41;100858.53;;;-0.28;100.00
59789;BME280;47353;51.614;5.530;2024-01-16T09:43:07;100863.56;;;-0.31;100.00
59789;BME280;47353;51.614;5.530;2024-01-16T09:45:36;100858.56;;;-0.02;100.00
59789;BME280;47353;51.614;5.530;2024-01-16T09:48:03;100871.13;;;-0.07;100.00
59789;BME280;47353;51.614;5.530;2024-01-16T09:50:29;100865.28;;;-0.04;100.00
59789;BME280;47353;51.614;5.530;2024-01-16T09:52:55;100872.63;;;0.22;100.00
59789;BME280;47353;51.614;5.530;2024-01-16T09:55:20;100874.28;;;0.16;100.00
59789;BME280;47353;51.614;5.530;2024-01-16T09:57:50;100883.47;;;-0.05;100.00
59789;BME280;47353;51.614;5.530;2024-01-16T10:00:17;100872.00;;;0.00;100.00
59789;BME280;47353;51.614;5.530;2024-01-16T10:02:42;100859.44;;;0.12;100.00
59789;BME280;47353;51.614;5.530;2024-01-16T10:05:11;100858.38;;;0.26;100.00
59789;BME280;47353;51.614;5.530;2024-01-16T10:07:38;100839.91;;;0.67;100.00
59789;BME280;47353;51.614;5.530;2024-01-16T10:10:04;100855.38;;;0.67;100.00
59789;BME280;47353;51.614;5.530;2024-01-16T10:12:30;100856.56;;;1.03;100.00
59789;BME280;47353;51.614;5.530;2024-01-16T10:14:56;100854.44;;;1.12;100.00
59789;BME280;47353;51.614;5.530;2024-01-16T10:17:22;100848.75;;;1.57;100.00
59789;BME280;47353;51.614;5.530;2024-01-16T10:19:53;100848.03;;;2.55;100.00
59789;BME280;47353;51.614;5.530;2024-01-16T10:22:24;100840.72;;;3.10;96.50
59789;BME280;47353;51.614;5.530;2024-01-16T10:25:12;100839.91;;;3.39;90.95
59789;BME280;47353;51.614;5.530;2024-01-16T10:27:42;100833.75;;;4.26;90.92
59789;BME280;47353;51.614;5.530;2024-01-16T10:30:07;100834.50;;;4.67;85.41
59789;BME280;47353;51.614;5.530;2024-01-16T10:32:42;100828.41;;;5.00;81.23
59789;BME280;47353;51.614;5.530;2024-01-16T10:35:09;100829.00;;;5.53;81.32
59789;BME280;47353;51.614;5.530;2024-01-16T10:40:10;100838.75;;;5.61;76.77
59789;BME280;47353;51.614;5.530;2024-01-16T10:42:39;100835.22;;;5.37;76.69
59789;BME280;47353;51.614;5.530;2024-01-16T10:45:06;100825.34;;;5.25;76.50
59789;BME280;47353;51.614;5.530;2024-01-16T10:47:31;100815.50;;;5.80;74.91
59789;BME280;47353;51.614;5.530;2024-01-16T10:50:03;100823.72;;;6.08;71.19
59789;BME280;47353;51.614;5.530;2024-01-16T10:52:30;100835.22;;;5.49;74.62
59789;BME280;47353;51.614;5.530;2024-01-16T10:55:00;100831.59;;;7.04;66.94
59789;BME280;47353;51.614;5.530;2024-01-16T10:57:31;100836.34;;;7.30;63.40
59789;BME280;47353;51.614;5.530;2024-01-16T11:00:04;100820.03;;;7.23;64.33
59789;BME280;47353;51.614;5.530;2024-01-16T11:02:40;100826.34;;;7.02;63.62
59789;BME280;47353;51.614;5.530;2024-01-16T11:05:09;100816.94;;;6.60;64.56
59789;BME280;47353;51.614;5.530;2024-01-16T11:07:37;100819.06;;;5.92;67.40
59789;BME280;47353;51.614;5.530;2024-01-16T11:10:02;100812.53;;;6.80;64.13
59789;BME280;47353;51.614;5.530;2024-01-16T11:12:30;100828.31;;;6.19;66.30
59789;BME280;47353;51.614;5.530;2024-01-16T11:14:59;100817.25;;;6.47;66.67
59789;BME280;47353;51.614;5.530;2024-01-16T11:17:27;100820.47;;;5.94;65.99
59789;BME280;47353;51.614;5.530;2024-01-16T11:19:53;100818.91;;;6.15;65.70
59789;BME280;47353;51.614;5.530;2024-01-16T11:22:19;100808.50;;;5.44;69.40
59789;BME280;47353;51.614;5.530;2024-01-16T11:25:11;100799.19;;;6.01;69.37
59789;BME280;47353;51.614;5.530;2024-01-16T11:27:39;100802.34;;;7.41;64.56
59789;BME280;47353;51.614;5.530;2024-01-16T11:30:06;100796.44;;;8.07;62.83
59789;BME280;47353;51.614;5.530;2024-01-16T11:32:45;100801.91;;;9.07;58.09
59789;BME280;47353;51.614;5.530;2024-01-16T11:35:10;100804.00;;;8.48;56.15
59789;BME280;47353;51.614;5.530;2024-01-16T11:37:41;100803.34;;;7.56;59.01
59789;BME280;47353;51.614;5.530;2024-01-16T11:42:43;100796.63;;;7.95;57.71
59789;BME280;47353;51.614;5.530;2024-01-16T11:48:13;100792.56;;;8.66;53.85
59789;BME280;47353;51.614;5.530;2024-01-16T11:50:40;100801.75;;;8.13;54.76
59789;BME280;47353;51.614;5.530;2024-01-16T11:53:06;100793.25;;;8.52;54.51
59789;BME280;47353;51.614;5.530;2024-01-16T11:55:33;100797.41;;;7.43;54.81
59789;BME280;47353;51.614;5.530;2024-01-16T12:00:49;100787.69;;;8.15;54.64
59789;BME280;47353;51.614;5.530;2024-01-16T12:03:21;100782.75;;;8.43;54.56
59789;BME280;47353;51.614;5.530;2024-01-16T12:06:00;100779.81;;;7.70;56.67
59789;BME280;47353;51.614;5.530;2024-01-16T12:08:26;100782.94;;;8.74;54.39
59789;BME280;47353;51.614;5.530;2024-01-16T12:10:51;100788.72;;;9.19;51.90
59789;BME280;47353;51.614;5.530;2024-01-16T12:13:17;100773.97;;;9.75;51.00
59789;BME280;47353;51.614;5.530;2024-01-16T12:15:43;100783.38;;;8.61;52.13
59789;BME280;47353;51.614;5.530;2024-01-16T12:18:08;100774.56;;;8.59;51.36
59789;BME280;47353;51.614;5.530;2024-01-16T12:20:35;100777.41;;;7.79;53.25
59789;BME280;47353;51.614;5.530;2024-01-16T12:23:06;100773.28;;;7.76;54.50
59789;BME280;47353;51.614;5.530;2024-01-16T12:25:33;100756.44;;;8.31;51.47
59789;BME280;47353;51.614;5.530;2024-01-16T12:28:06;100752.59;;;7.74;54.32
59789;BME280;47353;51.614;5.530;2024-01-16T12:30:34;100747.25;;;8.57;48.67
59789;BME280;47353;51.614;5.530;2024-01-16T12:35:34;100752.59;;;9.35;48.75
59789;BME280;47353;51.614;5.530;2024-01-16T12:38:07;100755.25;;;9.10;49.24
59789;BME280;47353;51.614;5.530;2024-01-16T12:40:35;100754.63;;;8.52;51.24
59789;BME280;47353;51.614;5.530;2024-01-16T12:43:05;100757.22;;;9.10;50.25
59789;BME280;47353;51.614;5.530;2024-01-16T12:45:31;100755.56;;;8.67;49.47
59789;BME280;47353;51.614;5.530;2024-01-16T12:47:57;100747.75;;;7.59;50.90
59789;BME280;47353;51.614;5.530;2024-01-16T12:50:25;100745.66;;;7.71;50.94
59789;BME280;47353;51.614;5.530;2024-01-16T12:53:08;100740.81;;;7.30;52.87
59789;BME280;47353;51.614;5.530;2024-01-16T12:55:36;100730.13;;;8.18;52.35